Time;durP1;ratioP1;P1;durP2;ratioP2;P2;SDS_P1;SDS_P2;PMS_P1;PMS_P2;Temp;Humidity;BMP_temperature;BMP_pressure;BME280_temperature;BME280_humidity;BME280_pressure;Samples;Min_cycle;Max_cycle;Signal;HPM_P1;HPM_P2
2022/02/25 00:02:18;;;;;;;13.48;1.85;;;3.70;99.90;;;;;;5053912;28;20044;-68
2022/02/25 00:04:43;;;;;;;15.85;1.70;;;3.70;99.90;;;;;;5069659;28;20446;-68
2022/02/25 00:07:09;;;;;;;10.50;1.42;;;3.70;99.90;;;;;;5065599;28;20051;-68
2022/02/25 00:09:35;;;;;;;7.65;1.10;;;3.70;99.90;;;;;;5068496;28;20127;-68
2022/02/25 00:12:00;;;;;;;8.27;1.17;;;3.80;99.90;;;;;;5069162;28;20086;-68
2022/02/25 00:14:26;;;;;;;11.65;1.70;;;3.80;99.90;;;;;;5071060;28;20045;-68
2022/02/25 00:16:51;;;;;;;11.05;1.75;;;3.90;99.90;;;;;;5069742;28;20467;-68
2022/02/25 00:19:18;;;;;;;8.73;1.45;;;3.90;99.90;;;;;;5067432;28;20040;-68
2022/02/25 00:21:44;;;;;;;10.00;1.13;;;3.90;99.90;;;;;;5068457;28;20064;-68
2022/02/25 00:24:09;;;;;;;9.38;1.55;;;3.90;99.90;;;;;;5069620;28;20059;-68
2022/02/25 00:26:35;;;;;;;12.73;1.10;;;4.00;99.90;;;;;;5065720;28;20040;-68
2022/02/25 00:29:05;;;;;;;15.82;1.88;;;4.00;99.90;;;;;;5070280;28;20032;-67
2022/02/25 00:31:31;;;;;;;10.15;1.35;;;4.10;99.90;;;;;;5069556;28;20040;-68
2022/02/25 00:33:57;;;;;;;7.18;1.60;;;4.10;99.90;;;;;;5071736;28;20074;-68
2022/02/25 00:36:22;;;;;;;7.55;0.90;;;4.20;99.90;;;;;;5072588;28;20489;-68
2022/02/25 00:38:48;;;;;;;9.80;1.35;;;4.20;99.90;;;;;;5067431;28;20043;-68
2022/02/25 00:41:14;;;;;;;9.15;0.98;;;4.20;99.90;;;;;;5068619;28;20048;-68
2022/02/25 00:43:39;;;;;;;9.00;2.13;;;4.30;99.90;;;;;;5069696;28;20045;-68
2022/02/25 00:46:05;;;;;;;13.52;1.35;;;4.30;99.90;;;;;;5067090;28;20069;-68
2022/02/25 00:48:31;;;;;;;14.07;1.75;;;4.30;99.90;;;;;;5076192;28;20045;-68
2022/02/25 00:50:56;;;;;;;7.38;1.65;;;4.30;99.90;;;;;;5067012;28;20040;-68
2022/02/25 00:53:22;;;;;;;9.88;1.13;;;4.30;99.90;;;;;;5069523;28;20670;-67
2022/02/25 00:55:48;;;;;;;10.95;1.15;;;4.40;99.90;;;;;;5072630;28;20158;-67
2022/02/25 00:58:13;;;;;;;9.35;1.60;;;4.40;99.90;;;;;;5068988;28;20051;-67
2022/02/25 01:00:40;;;;;;;10.13;1.40;;;4.30;99.90;;;;;;5068883;28;20040;-67
2022/02/25 01:03:06;;;;;;;8.45;1.00;;;4.40;99.90;;;;;;5067513;28;20119;-67
2022/02/25 01:05:32;;;;;;;6.57;1.30;;;4.40;99.90;;;;;;5071492;28;20132;-67
2022/02/25 01:08:02;;;;;;;9.23;0.90;;;4.40;99.90;;;;;;5066633;28;20797;-67
2022/02/25 01:10:27;;;;;;;12.60;1.45;;;4.40;99.90;;;;;;5066995;28;20150;-67
2022/02/25 01:12:53;;;;;;;19.63;2.53;;;4.50;99.90;;;;;;5067896;28;20506;-67
2022/02/25 01:15:19;;;;;;;5.85;1.10;;;4.50;99.90;;;;;;5066548;28;20044;-67
2022/02/25 01:17:44;;;;;;;9.00;1.05;;;4.50;99.90;;;;;;5067498;28;20048;-67
2022/02/25 01:20:11;;;;;;;11.98;1.83;;;4.50;99.90;;;;;;5071835;28;20042;-67
2022/02/25 01:22:37;;;;;;;11.40;1.48;;;4.50;99.90;;;;;;5064442;28;20540;-67
2022/02/25 01:25:03;;;;;;;8.82;1.05;;;4.60;99.90;;;;;;5066394;28;20044;-67
2022/02/25 01:27:30;;;;;;;10.10;1.17;;;4.60;99.90;;;;;;5066634;28;20085;-67
2022/02/25 01:29:56;;;;;;;12.68;2.03;;;4.60;99.90;;;;;;5068367;28;20032;-67
2022/02/25 01:32:22;;;;;;;9.52;1.40;;;4.60;99.90;;;;;;5067666;28;20037;-67
2022/02/25 01:34:49;;;;;;;11.77;1.42;;;4.60;99.90;;;;;;5069002;28;20043;-67
2022/02/25 01:37:15;;;;;;;10.20;1.15;;;4.70;99.90;;;;;;5066793;28;20029;-67
2022/02/25 01:39:41;;;;;;;12.02;1.20;;;4.70;99.90;;;;;;5071562;28;20113;-67
2022/02/25 01:42:07;;;;;;;11.52;1.13;;;4.70;99.90;;;;;;5089649;28;20036;-67
2022/02/25 01:44:37;;;;;;;14.80;1.98;;;4.70;99.90;;;;;;5067573;28;20048;-67
2022/02/25 01:47:03;;;;;;;11.90;1.63;;;4.70;99.90;;;;;;5069779;28;20047;-67
2022/02/25 01:49:29;;;;;;;15.15;1.75;;;4.70;99.90;;;;;;5068010;28;20516;-67
2022/02/25 01:52:05;;;;;;;12.93;1.40;;;4.70;99.90;;;;;;5070821;28;20390;-67
2022/02/25 01:54:31;;;;;;;15.13;1.70;;;4.70;99.90;;;;;;5067153;28;20045;-67
2022/02/25 01:56:58;;;;;;;10.13;1.38;;;4.70;99.90;;;;;;5068504;28;20053;-67
2022/02/25 01:59:26;;;;;;;13.57;1.63;;;4.70;99.90;;;;;;5070849;28;20135;-67
2022/02/25 02:01:51;;;;;;;13.23;1.65;;;4.70;99.90;;;;;;5067794;28;20037;-67
2022/02/25 02:04:17;;;;;;;11.45;1.70;;;4.70;99.90;;;;;;5072350;28;20033;-67
2022/02/25 02:06:43;;;;;;;9.63;1.63;;;4.80;99.90;;;;;;5076486;28;20478;-67
2022/02/25 02:09:09;;;;;;;9.98;1.70;;;4.70;99.90;;;;;;5073226;28;20072;-67
2022/02/25 02:11:37;;;;;;;12.88;1.58;;;4.60;99.90;;;;;;5070924;28;20127;-67
2022/02/25 02:14:05;;;;;;;10.02;1.50;;;4.60;99.90;;;;;;5073878;28;20437;-67
2022/02/25 02:16:31;;;;;;;10.95;1.42;;;4.60;99.90;;;;;;5076525;28;20441;-67
2022/02/25 02:18:57;;;;;;;13.30;1.63;;;4.50;99.90;;;;;;5090037;28;20040;-67
2022/02/25 02:21:25;;;;;;;13.05;1.42;;;4.40;99.90;;;;;;5072717;28;20032;-67
2022/02/25 02:23:56;;;;;;;9.35;1.70;;;4.40;99.90;;;;;;5075303;28;20064;-67
2022/02/25 02:26:21;;;;;;;13.82;2.40;;;4.30;99.90;;;;;;5055055;28;20131;-67
2022/02/25 02:28:47;;;;;;;11.32;1.40;;;4.30;99.90;;;;;;5074546;28;20456;-67
2022/02/25 02:31:13;;;;;;;8.80;1.80;;;4.20;99.90;;;;;;5088410;28;20043;-67
2022/02/25 02:33:40;;;;;;;15.57;2.10;;;4.20;99.90;;;;;;5074038;28;20044;-67
2022/02/25 02:36:06;;;;;;;11.80;1.45;;;4.20;99.90;;;;;;5077029;28;20119;-67
2022/02/25 02:38:32;;;;;;;10.55;1.38;;;4.10;99.90;;;;;;5069901;28;20483;-67
2022/02/25 02:40:58;;;;;;;14.60;1.60;;;4.10;99.90;;;;;;5074972;28;20063;-67
2022/02/25 02:43:24;;;;;;;12.57;1.92;;;4.00;99.90;;;;;;5080345;28;20048;-67
2022/02/25 02:45:51;;;;;;;14.00;1.73;;;4.00;99.90;;;;;;5073550;28;20423;-67
2022/02/25 02:48:16;;;;;;;13.52;1.52;;;4.00;99.90;;;;;;5077469;28;20052;-67
2022/02/25 02:50:43;;;;;;;18.60;2.13;;;4.00;99.90;;;;;;5103493;28;20039;-66
2022/02/25 02:53:09;;;;;;;15.55;1.38;;;4.00;99.90;;;;;;5101919;28;20952;-67
2022/02/25 02:55:34;;;;;;;12.43;2.30;;;3.90;99.90;;;;;;5076757;28;20054;-67
2022/02/25 02:58:00;;;;;;;15.00;2.58;;;3.90;99.90;;;;;;5080855;28;20457;-67
2022/02/25 03:00:26;;;;;;;12.60;1.25;;;3.90;99.90;;;;;;5070586;28;20131;-67
2022/02/25 03:02:52;;;;;;;7.20;1.50;;;3.90;99.90;;;;;;5072117;28;20044;-67
2022/02/25 03:05:18;;;;;;;15.82;1.95;;;3.90;99.90;;;;;;5070651;28;20036;-67
2022/02/25 03:07:48;;;;;;;14.98;2.40;;;3.90;99.90;;;;;;5073317;28;20402;-67
2022/02/25 03:10:15;;;;;;;12.90;2.38;;;3.90;99.90;;;;;;5070464;28;20558;-67
2022/02/25 03:12:41;;;;;;;13.82;2.63;;;3.90;99.90;;;;;;5077087;28;20083;-67
2022/02/25 03:15:08;;;;;;;13.20;1.80;;;3.90;99.90;;;;;;5072220;28;20080;-67
2022/02/25 03:17:34;;;;;;;16.42;1.73;;;3.90;99.90;;;;;;5086139;28;20056;-67
2022/02/25 03:20:00;;;;;;;15.48;2.47;;;3.90;99.90;;;;;;5071494;28;20040;-67
2022/02/25 03:22:26;;;;;;;14.68;2.97;;;3.90;99.90;;;;;;5068268;28;20037;-67
2022/02/25 03:24:53;;;;;;;19.80;1.73;;;3.90;99.90;;;;;;5071867;28;20037;-67
2022/02/25 03:27:19;;;;;;;13.10;2.47;;;3.90;99.90;;;;;;5071497;28;20036;-67
2022/02/25 03:29:45;;;;;;;10.32;1.90;;;3.90;99.90;;;;;;5069198;28;20489;-67
2022/02/25 03:32:11;;;;;;;17.77;1.98;;;3.90;99.90;;;;;;5068349;28;20047;-67
2022/02/25 03:34:37;;;;;;;14.73;1.83;;;3.90;99.90;;;;;;5069487;28;20119;-67
2022/02/25 03:37:04;;;;;;;17.70;1.77;;;3.90;99.90;;;;;;5069144;28;20037;-67
2022/02/25 03:39:29;;;;;;;19.42;2.63;;;3.90;99.90;;;;;;5067194;28;20032;-67
2022/02/25 03:41:55;;;;;;;23.13;2.80;;;3.80;99.90;;;;;;5073124;28;20143;-67
2022/02/25 03:44:21;;;;;;;12.75;2.08;;;3.80;99.90;;;;;;5069192;28;20036;-67
2022/02/25 03:46:47;;;;;;;11.23;1.85;;;3.70;99.90;;;;;;5068663;28;20479;-67
2022/02/25 03:49:14;;;;;;;13.27;2.58;;;3.70;99.90;;;;;;5071550;28;20474;-67
2022/02/25 03:51:41;;;;;;;13.43;1.63;;;3.60;99.90;;;;;;5068802;28;20070;-67
2022/02/25 03:54:06;;;;;;;19.33;2.30;;;3.50;99.90;;;;;;5072645;28;20048;-67
2022/02/25 03:56:32;;;;;;;10.13;1.58;;;3.40;99.90;;;;;;5070063;28;20465;-67
2022/02/25 03:58:59;;;;;;;10.07;1.50;;;3.40;99.90;;;;;;5073754;28;20043;-67
2022/02/25 04:01:25;;;;;;;12.85;1.17;;;3.30;99.90;;;;;;5068732;28;20049;-67
2022/02/25 04:03:51;;;;;;;8.63;1.80;;;3.20;99.90;;;;;;5072911;28;20093;-67
2022/02/25 04:06:17;;;;;;;9.77;1.25;;;3.30;99.90;;;;;;5072559;28;20036;-67
2022/02/25 04:08:45;;;;;;;14.70;2.28;;;3.20;99.90;;;;;;5069662;28;20089;-67
2022/02/25 04:11:10;;;;;;;12.90;2.22;;;3.20;99.90;;;;;;5071526;28;20042;-67
2022/02/25 04:13:37;;;;;;;12.35;1.67;;;3.10;99.90;;;;;;5073924;28;20033;-67
2022/02/25 04:16:03;;;;;;;12.82;2.03;;;3.10;99.90;;;;;;5069258;28;20068;-67
2022/02/25 04:18:29;;;;;;;17.80;2.38;;;3.10;99.90;;;;;;5072317;28;20129;-67
2022/02/25 04:20:54;;;;;;;10.90;1.52;;;3.10;99.90;;;;;;5071633;28;20048;-67
2022/02/25 04:23:20;;;;;;;9.90;1.55;;;3.00;99.90;;;;;;5067573;28;20037;-67
2022/02/25 04:25:45;;;;;;;15.95;1.60;;;3.00;99.90;;;;;;5071620;28;20121;-67
2022/02/25 04:28:11;;;;;;;12.77;1.73;;;3.00;99.90;;;;;;5069084;28;20052;-67
2022/02/25 04:30:37;;;;;;;9.25;1.60;;;2.90;99.90;;;;;;5097618;28;20394;-67
2022/02/25 04:33:06;;;;;;;16.20;1.85;;;2.90;99.90;;;;;;5070540;28;20044;-67
2022/02/25 04:35:31;;;;;;;14.63;2.30;;;2.90;99.90;;;;;;5069839;28;20063;-67
2022/02/25 04:37:57;;;;;;;13.55;2.53;;;2.90;99.90;;;;;;5069709;28;20040;-67
2022/02/25 04:40:23;;;;;;;16.25;2.20;;;2.90;99.90;;;;;;5071091;28;20064;-66
2022/02/25 04:42:49;;;;;;;11.40;1.52;;;2.90;99.90;;;;;;5072317;28;20058;-67
2022/02/25 04:45:15;;;;;;;17.42;1.67;;;2.80;99.90;;;;;;5069551;28;20400;-67
2022/02/25 04:47:41;;;;;;;9.73;1.95;;;2.80;99.90;;;;;;5072469;28;20040;-67
2022/02/25 04:50:12;;;;;;;14.13;1.48;;;2.80;99.90;;;;;;5068745;28;20037;-68
2022/02/25 04:52:39;;;;;;;18.42;2.28;;;2.90;99.90;;;;;;5065426;28;20036;-67
2022/02/25 04:55:06;;;;;;;16.48;2.30;;;2.90;99.90;;;;;;5070603;28;20068;-67
2022/02/25 04:57:32;;;;;;;14.85;1.35;;;2.90;99.90;;;;;;5070687;28;20386;-67
2022/02/25 04:59:57;;;;;;;13.88;2.00;;;2.90;99.90;;;;;;5067344;28;20044;-67
2022/02/25 05:02:23;;;;;;;12.50;1.98;;;3.00;99.90;;;;;;5069770;28;20398;-67
2022/02/25 05:04:49;;;;;;;13.95;1.95;;;3.00;99.90;;;;;;5069775;28;20352;-67
2022/02/25 05:07:15;;;;;;;13.25;1.98;;;3.00;99.90;;;;;;5072367;28;20490;-67
2022/02/25 05:09:40;;;;;;;14.93;1.67;;;3.10;99.90;;;;;;5069329;28;20080;-67
2022/02/25 05:12:07;;;;;;;13.13;1.67;;;3.10;99.90;;;;;;5067511;28;20044;-67
2022/02/25 05:22:46;;;;;;;15.07;2.20;;;3.30;99.90;;;;;;5070732;28;20491;-67
2022/02/25 05:25:11;;;;;;;13.63;1.70;;;3.30;99.90;;;;;;5071413;28;20032;-67
2022/02/25 05:27:37;;;;;;;16.42;3.10;;;3.30;99.90;;;;;;5067357;28;20032;-67
2022/02/25 05:30:04;;;;;;;16.02;1.88;;;3.40;99.90;;;;;;5069076;28;20047;-67
2022/02/25 05:32:29;;;;;;;11.38;1.42;;;3.40;99.90;;;;;;5065660;28;20037;-67
2022/02/25 05:34:55;;;;;;;14.23;1.70;;;3.50;99.90;;;;;;5067807;28;20101;-67
2022/02/25 05:37:21;;;;;;;10.38;2.05;;;3.40;99.90;;;;;;5070499;28;20043;-67
2022/02/25 05:39:46;;;;;;;17.35;1.80;;;3.50;99.90;;;;;;5069214;28;20556;-66
2022/02/25 05:42:12;;;;;;;14.15;1.85;;;3.50;99.90;;;;;;5065205;28;20037;-66
2022/02/25 05:44:37;;;;;;;10.38;1.60;;;3.60;99.90;;;;;;5085124;28;20399;-66
2022/02/25 05:47:03;;;;;;;19.48;3.10;;;3.60;99.90;;;;;;5067426;28;20044;-67
2022/02/25 05:49:30;;;;;;;15.77;1.55;;;3.60;99.90;;;;;;5071001;28;20081;-66
2022/02/25 05:51:56;;;;;;;15.27;2.53;;;3.60;99.90;;;;;;5066721;28;20076;-67
2022/02/25 05:54:22;;;;;;;10.65;1.40;;;3.60;99.90;;;;;;5066135;28;20103;-67
2022/02/25 05:56:48;;;;;;;12.82;1.80;;;3.60;99.90;;;;;;5067232;28;20040;-66
2022/02/25 05:59:14;;;;;;;16.40;2.13;;;3.60;99.90;;;;;;5066787;28;20054;-66
2022/02/25 06:01:40;;;;;;;20.90;2.90;;;3.60;99.90;;;;;;5061297;28;20123;-67
2022/02/25 06:04:05;;;;;;;20.75;2.22;;;3.60;99.90;;;;;;5066656;28;20041;-66
2022/02/25 06:06:32;;;;;;;14.52;2.22;;;3.70;99.90;;;;;;5062629;28;20047;-67
2022/02/25 06:08:58;;;;;;;11.90;2.42;;;3.70;99.90;;;;;;5063999;28;20048;-67
2022/02/25 06:11:24;;;;;;;11.65;1.83;;;3.70;99.90;;;;;;5065599;28;20127;-67
2022/02/25 06:13:50;;;;;;;14.90;2.03;;;3.70;99.90;;;;;;5067984;28;20028;-67
2022/02/25 06:16:15;;;;;;;14.60;1.80;;;3.80;99.90;;;;;;5063243;28;20048;-66
2022/02/25 06:18:42;;;;;;;14.55;1.67;;;3.80;99.90;;;;;;5067644;28;20044;-66
2022/02/25 06:21:09;;;;;;;13.77;1.77;;;3.80;99.90;;;;;;5063265;28;20151;-66
2022/02/25 06:23:35;;;;;;;16.13;1.67;;;3.80;99.90;;;;;;5063506;28;20063;-67
2022/02/25 06:26:01;;;;;;;12.10;2.83;;;3.90;99.90;;;;;;5063978;28;20036;-66
2022/02/25 06:28:27;;;;;;;9.70;2.05;;;4.00;99.90;;;;;;5063210;28;20033;-67
2022/02/25 06:30:53;;;;;;;19.23;2.70;;;4.00;99.90;;;;;;5066213;28;20040;-67
2022/02/25 06:33:19;;;;;;;15.57;2.10;;;4.10;99.90;;;;;;5066382;28;20505;-67
2022/02/25 06:35:45;;;;;;;16.02;2.30;;;4.10;99.90;;;;;;5064629;28;20040;-67
2022/02/25 06:38:10;;;;;;;22.80;3.33;;;4.10;99.90;;;;;;5064353;28;20032;-67
2022/02/25 06:40:36;;;;;;;12.93;2.28;;;4.10;99.90;;;;;;5064999;28;20036;-67
2022/02/25 06:43:02;;;;;;;21.63;2.60;;;4.10;99.90;;;;;;5065693;28;20044;-67
2022/02/25 06:45:27;;;;;;;14.65;2.22;;;4.10;99.90;;;;;;5065108;28;20139;-67
2022/02/25 06:47:53;;;;;;;22.85;2.95;;;4.10;99.90;;;;;;5064246;28;20072;-67
2022/02/25 06:50:19;;;;;;;15.50;1.70;;;4.10;99.90;;;;;;5066562;28;20040;-67
2022/02/25 06:52:46;;;;;;;16.85;2.45;;;4.10;99.90;;;;;;5070438;28;20086;-68
2022/02/25 06:55:14;;;;;;;18.83;2.38;;;4.10;99.90;;;;;;5070529;28;20386;-68
2022/02/25 06:57:41;;;;;;;21.52;2.95;;;4.20;99.90;;;;;;5071794;28;20379;-67
2022/02/25 07:00:07;;;;;;;15.05;2.15;;;4.20;99.90;;;;;;5070819;28;21000;-67
2022/02/25 07:02:33;;;;;;;22.77;2.08;;;4.20;99.90;;;;;;5067523;28;20045;-67
2022/02/25 07:04:59;;;;;;;19.33;2.42;;;4.20;99.90;;;;;;5067130;28;20039;-67
2022/02/25 07:07:27;;;;;;;13.85;2.42;;;4.30;99.90;;;;;;5069210;28;20045;-67
2022/02/25 07:09:53;;;;;;;15.45;2.95;;;4.30;99.90;;;;;;5070404;28;21302;-67
2022/02/25 07:12:19;;;;;;;13.52;1.75;;;4.30;99.90;;;;;;5068365;28;20043;-67
2022/02/25 07:14:45;;;;;;;17.25;2.65;;;4.40;99.90;;;;;;5069735;28;20044;-66
2022/02/25 07:17:11;;;;;;;16.98;2.40;;;4.30;99.90;;;;;;5069628;28;20041;-67
2022/02/25 07:19:36;;;;;;;17.67;2.92;;;4.40;99.90;;;;;;5068719;28;20127;-67
2022/02/25 07:22:02;;;;;;;16.95;3.15;;;4.40;99.90;;;;;;5067946;28;20430;-67
2022/02/25 07:24:28;;;;;;;17.65;1.85;;;4.40;99.90;;;;;;5073497;28;20068;-66
2022/02/25 07:26:53;;;;;;;14.57;1.85;;;4.40;99.90;;;;;;5069463;28;20458;-67
2022/02/25 07:29:19;;;;;;;13.43;1.73;;;4.40;99.90;;;;;;5071601;28;20058;-67
2022/02/25 07:31:44;;;;;;;17.05;2.67;;;4.40;99.90;;;;;;5071587;28;20068;-67
2022/02/25 07:34:10;;;;;;;22.40;2.78;;;4.30;99.90;;;;;;5072306;28;20364;-67
2022/02/25 07:36:36;;;;;;;15.75;2.13;;;4.40;99.90;;;;;;5070201;28;20048;-67
2022/02/25 07:39:03;;;;;;;16.13;1.98;;;4.40;99.90;;;;;;5068843;28;20040;-67
2022/02/25 07:41:29;;;;;;;13.50;1.85;;;4.40;99.90;;;;;;5082682;28;20040;-67
2022/02/25 07:43:54;;;;;;;15.27;2.20;;;4.40;99.90;;;;;;5069214;28;20047;-67
2022/02/25 07:46:20;;;;;;;16.10;3.22;;;4.50;99.90;;;;;;5071342;28;20082;-67
2022/02/25 07:48:46;;;;;;;18.58;2.60;;;4.50;99.90;;;;;;5086947;28;20423;-67
2022/02/25 07:51:12;;;;;;;14.50;2.42;;;4.50;99.90;;;;;;5068576;28;20128;-67
2022/02/25 07:53:38;;;;;;;14.80;2.20;;;4.60;99.90;;;;;;5065821;28;20059;-67
2022/02/25 07:56:06;;;;;;;21.27;2.72;;;4.60;99.90;;;;;;5069123;28;20075;-67
2022/02/25 07:58:32;;;;;;;18.20;1.88;;;4.80;99.90;;;;;;5067650;28;20044;-67
2022/02/25 08:00:59;;;;;;;16.25;2.10;;;4.90;99.90;;;;;;5068264;28;20037;-67
2022/02/25 08:03:25;;;;;;;14.52;2.03;;;4.90;99.90;;;;;;5067829;28;20053;-67
2022/02/25 08:05:50;;;;;;;12.60;1.85;;;5.00;99.90;;;;;;5068572;28;20044;-67
2022/02/25 08:08:16;;;;;;;18.77;3.22;;;4.90;99.90;;;;;;5071346;28;20288;-67
2022/02/25 08:10:42;;;;;;;16.17;2.40;;;4.90;99.90;;;;;;5068354;28;20051;-67
2022/02/25 08:13:09;;;;;;;12.75;2.38;;;5.00;99.90;;;;;;5067664;28;20123;-67
2022/02/25 08:15:35;;;;;;;16.25;2.00;;;5.10;99.90;;;;;;5066088;28;20131;-67
2022/02/25 08:18:02;;;;;;;15.57;2.35;;;5.20;99.90;;;;;;5067035;28;20144;-67
2022/02/25 08:20:28;;;;;;;22.52;3.03;;;5.30;99.90;;;;;;5065699;28;20127;-67
2022/02/25 08:22:57;;;;;;;13.40;2.08;;;5.50;99.90;;;;;;5068209;28;20250;-67
2022/02/25 08:25:23;;;;;;;19.48;2.90;;;5.70;99.90;;;;;;5066172;28;20119;-67
2022/02/25 08:27:49;;;;;;;11.02;2.22;;;5.80;99.90;;;;;;5066982;28;20198;-67
2022/02/25 08:30:15;;;;;;;11.13;2.28;;;5.80;99.90;;;;;;5065595;28;20581;-67
2022/02/25 08:32:43;;;;;;;16.90;1.95;;;5.90;99.90;;;;;;5068267;28;20128;-67
2022/02/25 08:35:09;;;;;;;13.80;2.13;;;5.90;99.90;;;;;;5066022;28;20044;-67
2022/02/25 08:37:36;;;;;;;15.05;2.00;;;5.70;99.90;;;;;;5067011;28;20089;-67
2022/02/25 08:40:03;;;;;;;8.23;1.40;;;5.60;99.90;;;;;;5095968;28;20089;-67
2022/02/25 08:42:30;;;;;;;8.60;1.50;;;5.60;99.90;;;;;;5068150;28;20051;-67
2022/02/25 08:44:56;;;;;;;10.43;1.50;;;5.50;99.90;;;;;;5067472;28;20442;-67
2022/02/25 08:47:21;;;;;;;12.82;1.67;;;5.60;99.90;;;;;;5064764;28;20075;-68
2022/02/25 08:49:47;;;;;;;12.70;1.85;;;5.60;99.90;;;;;;5067705;28;20039;-67
2022/02/25 08:52:13;;;;;;;15.10;2.55;;;5.80;99.90;;;;;;5066936;28;20036;-67
2022/02/25 08:54:39;;;;;;;16.13;1.92;;;5.90;99.90;;;;;;5064458;28;20044;-67
2022/02/25 08:57:09;;;;;;;10.73;1.70;;;6.00;99.90;;;;;;5063833;28;20043;-67
2022/02/25 08:59:35;;;;;;;15.13;1.92;;;6.20;99.90;;;;;;5064305;28;20051;-67
2022/02/25 09:02:01;;;;;;;12.98;1.58;;;6.30;99.90;;;;;;5065411;28;20032;-68
2022/02/25 09:04:26;;;;;;;11.35;1.30;;;6.50;99.90;;;;;;5067486;28;20436;-67
2022/02/25 09:06:52;;;;;;;17.50;2.50;;;6.60;99.90;;;;;;5067247;28;20042;-67
2022/02/25 09:09:17;;;;;;;12.80;1.63;;;6.70;99.90;;;;;;5066521;28;20032;-67
2022/02/25 09:11:43;;;;;;;16.83;1.92;;;6.80;99.90;;;;;;5063976;28;20037;-67
2022/02/25 09:14:10;;;;;;;17.10;2.50;;;6.80;99.90;;;;;;5051138;28;20041;-67
2022/02/25 09:16:35;;;;;;;13.02;2.22;;;7.00;99.90;;;;;;5063616;28;20078;-67
2022/02/25 09:19:02;;;;;;;13.13;2.17;;;7.10;99.90;;;;;;5066768;28;20056;-66
2022/02/25 09:21:29;;;;;;;13.93;2.03;;;7.10;99.90;;;;;;5091759;28;20048;-66
2022/02/25 09:23:55;;;;;;;13.13;1.73;;;7.10;99.90;;;;;;5065134;28;20152;-66
2022/02/25 09:26:21;;;;;;;13.98;1.85;;;7.00;99.90;;;;;;5066188;28;20115;-67
2022/02/25 09:28:47;;;;;;;14.77;2.35;;;7.00;99.90;;;;;;5068084;28;20036;-67
2022/02/25 09:31:12;;;;;;;19.17;2.45;;;6.90;99.90;;;;;;5065694;28;20040;-67
2022/02/25 09:33:38;;;;;;;17.92;2.55;;;6.80;99.90;;;;;;5096771;28;20040;-67
2022/02/25 09:36:04;;;;;;;13.57;2.03;;;6.80;99.90;;;;;;5066785;28;20119;-66
2022/02/25 09:38:30;;;;;;;15.70;2.50;;;6.70;99.90;;;;;;5067093;28;20040;-66
2022/02/25 09:40:56;;;;;;;21.30;2.55;;;6.70;99.90;;;;;;5065761;28;20043;-67
2022/02/25 09:43:22;;;;;;;21.35;4.22;;;6.70;99.90;;;;;;5067628;28;20040;-67
2022/02/25 09:45:48;;;;;;;16.83;1.80;;;6.80;99.90;;;;;;5063905;28;20491;-67
2022/02/25 09:48:13;;;;;;;11.52;2.30;;;6.80;99.90;;;;;;5073482;28;20276;-66
2022/02/25 09:50:42;;;;;;;15.88;2.00;;;6.80;99.90;;;;;;5069014;28;20066;-67
2022/02/25 09:53:09;;;;;;;20.90;2.75;;;6.90;99.90;;;;;;5064534;28;20053;-67
2022/02/25 09:55:35;;;;;;;20.75;2.67;;;7.10;99.90;;;;;;5066921;28;20044;-67
2022/02/25 09:58:05;;;;;;;21.70;3.65;;;7.30;99.90;;;;;;5067503;28;20048;-67
2022/02/25 10:00:33;;;;;;;21.33;2.30;;;7.40;99.90;;;;;;5068373;28;20041;-67
2022/02/25 10:03:02;;;;;;;17.42;2.58;;;7.60;99.90;;;;;;5094970;28;20048;-67
2022/02/25 10:05:30;;;;;;;15.80;2.15;;;7.80;99.90;;;;;;5066675;28;20063;-67
2022/02/25 10:08:07;;;;;;;15.93;2.72;;;7.90;99.90;;;;;;5065936;28;20566;-67
2022/02/25 10:10:40;;;;;;;21.25;3.80;;;7.80;99.90;;;;;;5066331;28;20510;-67
2022/02/25 10:13:06;;;;;;;20.35;3.35;;;7.80;99.90;;;;;;5064485;28;20148;-67
2022/02/25 10:15:34;;;;;;;15.57;2.80;;;7.70;99.90;;;;;;5066715;28;20554;-67
2022/02/25 10:18:30;;;;;;;18.42;2.35;;;7.70;99.90;;;;;;5066706;28;20044;-67
2022/02/25 10:21:13;;;;;;;20.73;4.03;;;7.70;99.90;;;;;;5065772;28;20043;-67
2022/02/25 10:23:41;;;;;;;15.02;2.05;;;7.80;99.90;;;;;;5067167;28;20313;-67
2022/02/25 10:26:13;;;;;;;19.75;3.65;;;8.00;99.90;;;;;;5068608;28;20039;-67
2022/02/25 10:28:42;;;;;;;16.98;2.58;;;8.10;99.90;;;;;;5072112;28;20037;-67
2022/02/25 10:31:22;;;;;;;15.90;2.95;;;8.10;99.90;;;;;;5069881;28;20045;-67
2022/02/25 10:34:11;;;;;;;16.13;2.22;;;8.00;99.90;;;;;;5073086;28;20090;-67
2022/02/25 10:36:46;;;;;;;16.75;2.47;;;8.00;99.90;;;;;;5070063;28;20059;-67
2022/02/25 10:39:21;;;;;;;21.02;3.00;;;7.90;99.90;;;;;;5073688;28;20052;-67
2022/02/25 10:42:02;;;;;;;23.83;3.28;;;7.90;99.90;;;;;;5068937;28;20043;-67
2022/02/25 10:44:58;;;;;;;18.20;2.78;;;7.90;99.90;;;;;;5070057;28;20672;-66
2022/02/25 10:47:34;;;;;;;17.42;3.35;;;8.00;99.90;;;;;;5054697;28;20045;-67
2022/02/25 10:50:01;;;;;;;18.48;3.10;;;8.20;99.90;;;;;;5069696;28;20044;-67
2022/02/25 10:52:30;;;;;;;16.92;2.92;;;8.40;99.90;;;;;;5074636;28;20069;-67
2022/02/25 10:54:57;;;;;;;18.05;2.55;;;8.50;99.90;;;;;;5097308;28;20044;-67
2022/02/25 10:57:25;;;;;;;23.05;3.42;;;8.60;99.90;;;;;;5073696;28;20391;-67
2022/02/25 10:59:51;;;;;;;18.77;2.60;;;8.80;99.90;;;;;;5072918;28;20080;-66
2022/02/25 11:02:35;;;;;;;12.45;2.97;;;8.70;99.90;;;;;;5075629;28;20043;-67
2022/02/25 11:05:05;;;;;;;19.10;3.33;;;8.30;99.90;;;;;;5067459;28;20037;-67
2022/02/25 11:07:32;;;;;;;14.07;2.60;;;8.10;99.90;;;;;;5071059;28;20043;-67
2022/02/25 11:09:58;;;;;;;15.32;1.67;;;7.80;99.90;;;;;;5069950;28;20123;-67
2022/02/25 11:12:28;;;;;;;4.72;0.65;;;7.10;99.90;;;;;;5071516;28;20123;-67
2022/02/25 11:14:54;;;;;;;6.40;0.90;;;6.60;99.90;;;;;;5071421;28;20128;-67
2022/02/25 11:17:20;;;;;;;4.25;0.60;;;6.10;99.90;;;;;;5070962;28;20139;-67
2022/02/25 11:19:50;;;;;;;5.22;0.88;;;5.80;99.90;;;;;;5069367;28;20123;-66
2022/02/25 11:22:18;;;;;;;4.43;0.45;;;5.60;99.90;;;;;;5069999;28;20364;-66
2022/02/25 11:24:46;;;;;;;5.80;1.05;;;5.40;99.90;;;;;;5065997;28;20044;-66
2022/02/25 11:27:12;;;;;;;5.05;0.55;;;5.30;99.90;;;;;;5072726;28;20060;-66
2022/02/25 11:30:01;;;;;;;8.57;0.60;;;5.30;99.90;;;;;;5069920;28;20222;-66
2022/02/25 11:32:34;;;;;;;8.05;1.00;;;5.30;99.90;;;;;;5055569;28;20102;-66
2022/02/25 11:35:10;;;;;;;7.75;1.15;;;5.20;99.90;;;;;;5068699;28;20090;-66
2022/02/25 11:37:45;;;;;;;6.28;1.00;;;5.20;99.90;;;;;;5067762;28;20138;-67
2022/02/25 11:40:11;;;;;;;10.45;0.98;;;5.20;99.90;;;;;;5097619;28;20052;-66
2022/02/25 11:42:38;;;;;;;7.60;0.80;;;5.30;99.90;;;;;;5100379;28;20048;-66
2022/02/25 11:45:18;;;;;;;8.43;0.82;;;5.30;99.90;;;;;;5094372;28;20510;-67
2022/02/25 11:47:53;;;;;;;7.32;1.33;;;5.20;99.90;;;;;;5068176;28;20063;-67
2022/02/25 11:50:49;;;;;;;15.80;1.52;;;5.30;99.90;;;;;;5065563;28;20037;-66
2022/02/25 11:53:24;;;;;;;9.40;0.90;;;5.30;99.90;;;;;;5057194;28;20052;-66
2022/02/25 11:55:51;;;;;;;10.15;1.38;;;5.30;99.90;;;;;;5098315;28;20085;-66
2022/02/25 11:58:46;;;;;;;8.82;1.00;;;5.40;99.90;;;;;;5067443;28;20055;-66
2022/02/25 12:01:18;;;;;;;6.78;0.95;;;5.60;99.90;;;;;;5087669;28;20164;-66
2022/02/25 12:04:05;;;;;;;6.38;1.00;;;5.80;99.90;;;;;;5069175;28;20071;-67
2022/02/25 12:06:56;;;;;;;7.05;0.52;;;6.10;99.90;;;;;;5065798;28;20072;-67
2022/02/25 12:09:51;;;;;;;6.28;0.98;;;6.40;99.90;;;;;;5063865;28;20112;-66
2022/02/25 12:12:22;;;;;;;6.22;0.60;;;6.70;99.90;;;;;;5069587;28;20025;-67
2022/02/25 12:15:00;;;;;;;7.85;0.60;;;6.90;99.90;;;;;;5063702;28;20127;-66
2022/02/25 12:17:53;;;;;;;10.82;1.10;;;7.10;99.90;;;;;;5067191;28;20124;-67
2022/02/25 12:20:46;;;;;;;4.07;0.40;;;7.30;99.90;;;;;;5068023;28;20506;-67
2022/02/25 12:23:15;;;;;;;5.03;0.47;;;7.60;99.90;;;;;;5063010;28;20049;-67
2022/02/25 12:25:41;;;;;;;7.97;0.90;;;7.70;99.90;;;;;;5068643;28;20123;-67
2022/02/25 12:28:27;;;;;;;5.13;0.60;;;7.90;99.90;;;;;;5068831;28;20127;-66
2022/02/25 12:31:29;;;;;;;5.38;1.17;;;8.00;99.90;;;;;;5068658;28;20048;-67
2022/02/25 12:33:59;;;;;;;9.82;0.60;;;8.20;99.90;;;;;;5022640;28;20094;-67
2022/02/25 12:36:27;;;;;;;5.65;0.82;;;8.30;99.90;;;;;;5072588;28;20049;-67
2022/02/25 12:39:02;;;;;;;8.82;0.77;;;8.30;99.90;;;;;;5068241;28;20041;-67
2022/02/25 12:41:42;;;;;;;7.75;0.65;;;8.40;99.90;;;;;;5065286;28;20044;-67
2022/02/25 12:44:14;;;;;;;7.10;0.80;;;8.50;99.90;;;;;;5065236;28;20040;-66
2022/02/25 12:46:51;;;;;;;13.02;1.65;;;8.60;99.90;;;;;;5084276;28;20399;-67
2022/02/25 12:49:19;;;;;;;11.85;1.92;;;8.60;99.90;;;;;;5063257;28;20063;-67
2022/02/25 12:51:46;;;;;;;10.68;0.95;;;8.60;99.90;;;;;;5064023;28;20044;-67
2022/02/25 12:54:17;;;;;;;9.68;1.13;;;8.60;99.90;;;;;;5067095;28;20048;-67
2022/02/25 12:56:50;;;;;;;10.57;1.20;;;8.80;99.90;;;;;;5068836;28;20044;-67
2022/02/25 12:59:39;;;;;;;9.05;1.25;;;8.80;99.90;;;;;;5067997;28;20039;-67
2022/02/25 13:02:12;;;;;;;8.43;0.90;;;8.80;99.90;;;;;;5042832;28;20048;-67